sensor_id;sensor_type;location;lat;lon;timestamp;temperature;humidity
60313;DHT22;46158;52.850;6.970;2022-12-07T00:01:17;13.70;78.00
60313;DHT22;46158;52.850;6.970;2022-12-07T00:04:00;13.70;78.00
60313;DHT22;46158;52.850;6.970;2022-12-07T00:06:36;13.70;77.90
60313;DHT22;46158;52.850;6.970;2022-12-07T00:09:05;13.70;78.00
60313;DHT22;46158;52.850;6.970;2022-12-07T00:11:36;13.70;77.90
60313;DHT22;46158;52.850;6.970;2022-12-07T00:14:05;13.60;77.90
60313;DHT22;46158;52.850;6.970;2022-12-07T00:16:36;13.60;77.80
60313;DHT22;46158;52.850;6.970;2022-12-07T00:19:06;13.60;77.80
60313;DHT22;46158;52.850;6.970;2022-12-07T00:21:34;13.60;77.70
60313;DHT22;46158;52.850;6.970;2022-12-07T00:24:02;13.60;78.40
60313;DHT22;46158;52.850;6.970;2022-12-07T00:26:31;13.60;77.70
60313;DHT22;46158;52.850;6.970;2022-12-07T00:29:00;13.60;77.60
60313;DHT22;46158;52.850;6.970;2022-12-07T00:31:43;13.60;77.60
60313;DHT22;46158;52.850;6.970;2022-12-07T00:34:27;13.60;77.60
60313;DHT22;46158;52.850;6.970;2022-12-07T00:36:53;13.60;77.60
60313;DHT22;46158;52.850;6.970;2022-12-07T00:39:19;13.50;77.50
60313;DHT22;46158;52.850;6.970;2022-12-07T00:41:47;13.60;77.50
60313;DHT22;46158;52.850;6.970;2022-12-07T00:44:13;13.50;77.40
60313;DHT22;46158;52.850;6.970;2022-12-07T00:46:43;13.50;77.40
60313;DHT22;46158;52.850;6.970;2022-12-07T00:49:13;13.50;77.40
60313;DHT22;46158;52.850;6.970;2022-12-07T00:51:42;13.50;77.30
60313;DHT22;46158;52.850;6.970;2022-12-07T00:54:08;13.50;77.30
60313;DHT22;46158;52.850;6.970;2022-12-07T00:56:39;13.50;77.30
60313;DHT22;46158;52.850;6.970;2022-12-07T00:59:05;13.50;77.20
60313;DHT22;46158;52.850;6.970;2022-12-07T01:01:35;13.40;77.20
60313;DHT22;46158;52.850;6.970;2022-12-07T01:04:02;13.50;77.20
60313;DHT22;46158;52.850;6.970;2022-12-07T01:06:29;13.50;77.20
60313;DHT22;46158;52.850;6.970;2022-12-07T01:08:57;13.40;77.00
60313;DHT22;46158;52.850;6.970;2022-12-07T01:11:31;13.40;77.10
60313;DHT22;46158;52.850;6.970;2022-12-07T01:14:01;13.40;77.00
60313;DHT22;46158;52.850;6.970;2022-12-07T01:16:31;13.40;77.00
60313;DHT22;46158;52.850;6.970;2022-12-07T01:18:57;13.40;76.90
60313;DHT22;46158;52.850;6.970;2022-12-07T01:21:30;13.30;76.90
60313;DHT22;46158;52.850;6.970;2022-12-07T01:24:10;13.40;76.90
60313;DHT22;46158;52.850;6.970;2022-12-07T01:26:37;13.40;76.80
60313;DHT22;46158;52.850;6.970;2022-12-07T01:29:02;13.40;76.90
60313;DHT22;46158;52.850;6.970;2022-12-07T01:31:29;13.40;76.80
60313;DHT22;46158;52.850;6.970;2022-12-07T01:33:58;13.30;76.70
60313;DHT22;46158;52.850;6.970;2022-12-07T01:36:30;13.30;76.70
60313;DHT22;46158;52.850;6.970;2022-12-07T01:38:59;13.30;76.60
60313;DHT22;46158;52.850;6.970;2022-12-07T01:41:28;13.30;76.60
60313;DHT22;46158;52.850;6.970;2022-12-07T01:44:20;13.30;76.60
60313;DHT22;46158;52.850;6.970;2022-12-07T01:46:58;13.30;76.50
60313;DHT22;46158;52.850;6.970;2022-12-07T01:49:39;13.20;76.50
60313;DHT22;46158;52.850;6.970;2022-12-07T01:52:29;13.30;76.50
60313;DHT22;46158;52.850;6.970;2022-12-07T01:55:04;13.30;76.40
60313;DHT22;46158;52.850;6.970;2022-12-07T01:57:32;13.30;76.50
60313;DHT22;46158;52.850;6.970;2022-12-07T02:00:00;13.20;77.10
60313;DHT22;46158;52.850;6.970;2022-12-07T02:02:36;13.20;76.30
60313;DHT22;46158;52.850;6.970;2022-12-07T02:05:06;13.20;76.30
60313;DHT22;46158;52.850;6.970;2022-12-07T02:07:38;13.20;76.30
60313;DHT22;46158;52.850;6.970;2022-12-07T02:30:12;13.10;76.00
60313;DHT22;46158;52.850;6.970;2022-12-07T02:35:12;13.00;74.70
60313;DHT22;46158;52.850;6.970;2022-12-07T02:38:16;13.00;74.80
60313;DHT22;46158;52.850;6.970;2022-12-07T02:40:55;13.00;74.90
60313;DHT22;46158;52.850;6.970;2022-12-07T02:43:26;13.00;75.10
60313;DHT22;46158;52.850;6.970;2022-12-07T02:45:59;12.90;75.10
60313;DHT22;46158;52.850;6.970;2022-12-07T02:48:27;12.90;75.10
60313;DHT22;46158;52.850;6.970;2022-12-07T02:50:54;12.90;75.10
60313;DHT22;46158;52.850;6.970;2022-12-07T02:53:35;12.90;75.10
60313;DHT22;46158;52.850;6.970;2022-12-07T03:07:26;12.90;75.00
60313;DHT22;46158;52.850;6.970;2022-12-07T03:10:14;12.90;75.10
60313;DHT22;46158;52.850;6.970;2022-12-07T03:13:04;12.90;75.10
60313;DHT22;46158;52.850;6.970;2022-12-07T03:18:48;12.80;75.00
60313;DHT22;46158;52.850;6.970;2022-12-07T03:21:19;12.80;75.10
60313;DHT22;46158;52.850;6.970;2022-12-07T03:23:56;12.80;75.10
60313;DHT22;46158;52.850;6.970;2022-12-07T03:26:35;12.80;75.00
60313;DHT22;46158;52.850;6.970;2022-12-07T03:29:07;12.80;75.00
60313;DHT22;46158;52.850;6.970;2022-12-07T03:31:43;12.80;75.00
60313;DHT22;46158;52.850;6.970;2022-12-07T03:34:20;12.80;75.00
60313;DHT22;46158;52.850;6.970;2022-12-07T03:39:39;12.80;74.90
60313;DHT22;46158;52.850;6.970;2022-12-07T03:42:09;12.80;75.00
60313;DHT22;46158;52.850;6.970;2022-12-07T03:44:36;12.70;74.90
60313;DHT22;46158;52.850;6.970;2022-12-07T03:47:17;12.70;75.00
60313;DHT22;46158;52.850;6.970;2022-12-07T03:50:00;12.70;74.90
60313;DHT22;46158;52.850;6.970;2022-12-07T03:53:40;12.70;75.00
60313;DHT22;46158;52.850;6.970;2022-12-07T03:55:50;12.70;74.90
60313;DHT22;46158;52.850;6.970;2022-12-07T03:58:28;12.70;75.10
60313;DHT22;46158;52.850;6.970;2022-12-07T04:01:11;12.70;75.00
60313;DHT22;46158;52.850;6.970;2022-12-07T04:03:37;12.70;75.00
60313;DHT22;46158;52.850;6.970;2022-12-07T04:06:07;12.60;74.90
60313;DHT22;46158;52.850;6.970;2022-12-07T04:08:39;12.60;74.80
60313;DHT22;46158;52.850;6.970;2022-12-07T04:11:05;12.60;74.90
60313;DHT22;46158;52.850;6.970;2022-12-07T04:13:36;12.60;74.80
60313;DHT22;46158;52.850;6.970;2022-12-07T04:16:27;12.60;74.80
60313;DHT22;46158;52.850;6.970;2022-12-07T04:18:53;12.60;74.90
60313;DHT22;46158;52.850;6.970;2022-12-07T04:21:22;12.60;74.80
60313;DHT22;46158;52.850;6.970;2022-12-07T04:23:48;12.60;74.80
60313;DHT22;46158;52.850;6.970;2022-12-07T04:26:14;12.60;74.80
60313;DHT22;46158;52.850;6.970;2022-12-07T04:28:48;12.60;74.80
60313;DHT22;46158;52.850;6.970;2022-12-07T04:31:23;12.50;74.70
60313;DHT22;46158;52.850;6.970;2022-12-07T04:33:49;12.50;74.70
60313;DHT22;46158;52.850;6.970;2022-12-07T04:36:14;12.50;74.70
60313;DHT22;46158;52.850;6.970;2022-12-07T04:38:40;12.50;74.70
60313;DHT22;46158;52.850;6.970;2022-12-07T04:41:07;12.50;74.60
60313;DHT22;46158;52.850;6.970;2022-12-07T04:43:37;12.50;74.70
60313;DHT22;46158;52.850;6.970;2022-12-07T04:46:05;12.50;74.70
60313;DHT22;46158;52.850;6.970;2022-12-07T04:48:32;12.50;74.70
60313;DHT22;46158;52.850;6.970;2022-12-07T04:50:58;12.50;74.80
60313;DHT22;46158;52.850;6.970;2022-12-07T04:53:23;12.50;74.80
60313;DHT22;46158;52.850;6.970;2022-12-07T04:55:51;12.50;74.80
60313;DHT22;46158;52.850;6.970;2022-12-07T04:58:16;12.50;74.80
60313;DHT22;46158;52.850;6.970;2022-12-07T05:00:42;12.50;74.70
60313;DHT22;46158;52.850;6.970;2022-12-07T05:03:08;12.50;74.70
60313;DHT22;46158;52.850;6.970;2022-12-07T05:05:41;12.40;74.60
60313;DHT22;46158;52.850;6.970;2022-12-07T05:08:07;12.40;74.60
60313;DHT22;46158;52.850;6.970;2022-12-07T05:10:34;12.40;74.60
60313;DHT22;46158;52.850;6.970;2022-12-07T05:12:59;12.40;74.60
60313;DHT22;46158;52.850;6.970;2022-12-07T05:15:28;12.40;74.60
60313;DHT22;46158;52.850;6.970;2022-12-07T05:18:03;12.40;74.70
60313;DHT22;46158;52.850;6.970;2022-12-07T05:20:42;12.40;74.60
60313;DHT22;46158;52.850;6.970;2022-12-07T05:23:16;12.40;74.70
60313;DHT22;46158;52.850;6.970;2022-12-07T05:25:48;12.40;74.70
60313;DHT22;46158;52.850;6.970;2022-12-07T05:28:14;12.40;74.80
60313;DHT22;46158;52.850;6.970;2022-12-07T05:30:42;12.40;74.70
60313;DHT22;46158;52.850;6.970;2022-12-07T05:33:10;12.30;74.60
60313;DHT22;46158;52.850;6.970;2022-12-07T05:35:37;12.40;74.70
60313;DHT22;46158;52.850;6.970;2022-12-07T05:38:06;12.30;74.60
60313;DHT22;46158;52.850;6.970;2022-12-07T05:40:32;12.30;74.60
60313;DHT22;46158;52.850;6.970;2022-12-07T05:42:58;12.30;74.60
60313;DHT22;46158;52.850;6.970;2022-12-07T05:45:24;12.30;74.60
60313;DHT22;46158;52.850;6.970;2022-12-07T05:47:50;12.30;74.60
60313;DHT22;46158;52.850;6.970;2022-12-07T05:50:25;12.30;74.70
60313;DHT22;46158;52.850;6.970;2022-12-07T05:52:50;12.30;74.80
60313;DHT22;46158;52.850;6.970;2022-12-07T05:55:16;12.30;74.90
60313;DHT22;46158;52.850;6.970;2022-12-07T05:57:45;12.30;75.00
60313;DHT22;46158;52.850;6.970;2022-12-07T06:00:33;12.30;75.10
60313;DHT22;46158;52.850;6.970;2022-12-07T06:03:04;12.20;75.20
60313;DHT22;46158;52.850;6.970;2022-12-07T06:05:32;12.30;75.30
60313;DHT22;46158;52.850;6.970;2022-12-07T06:08:03;12.20;75.30
60313;DHT22;46158;52.850;6.970;2022-12-07T06:10:29;12.20;75.40
60313;DHT22;46158;52.850;6.970;2022-12-07T06:12:55;12.20;75.60
60313;DHT22;46158;52.850;6.970;2022-12-07T06:15:38;12.20;75.70
60313;DHT22;46158;52.850;6.970;2022-12-07T06:18:06;12.20;75.70
60313;DHT22;46158;52.850;6.970;2022-12-07T06:20:32;12.20;75.90
60313;DHT22;46158;52.850;6.970;2022-12-07T06:23:01;12.20;76.10
60313;DHT22;46158;52.850;6.970;2022-12-07T06:25:27;12.20;76.20
60313;DHT22;46158;52.850;6.970;2022-12-07T06:27:56;12.20;76.30
60313;DHT22;46158;52.850;6.970;2022-12-07T06:30:45;12.20;76.50
60313;DHT22;46158;52.850;6.970;2022-12-07T06:33:23;12.30;76.60
60313;DHT22;46158;52.850;6.970;2022-12-07T06:35:49;12.20;76.60
60313;DHT22;46158;52.850;6.970;2022-12-07T06:38:24;12.20;76.80
60313;DHT22;46158;52.850;6.970;2022-12-07T06:40:51;12.20;76.80
60313;DHT22;46158;52.850;6.970;2022-12-07T06:43:24;12.30;77.00
60313;DHT22;46158;52.850;6.970;2022-12-07T06:45:53;12.30;77.10
60313;DHT22;46158;52.850;6.970;2022-12-07T06:48:19;12.30;77.20
60313;DHT22;46158;52.850;6.970;2022-12-07T06:50:46;12.30;77.30
60313;DHT22;46158;52.850;6.970;2022-12-07T06:53:12;12.20;77.30
60313;DHT22;46158;52.850;6.970;2022-12-07T06:55:38;12.30;77.50
60313;DHT22;46158;52.850;6.970;2022-12-07T06:58:04;12.30;77.60
60313;DHT22;46158;52.850;6.970;2022-12-07T07:00:30;12.30;77.60
60313;DHT22;46158;52.850;6.970;2022-12-07T07:02:56;12.30;77.70
60313;DHT22;46158;52.850;6.970;2022-12-07T07:05:22;12.30;77.80
60313;DHT22;46158;52.850;6.970;2022-12-07T07:07:49;12.30;77.90
60313;DHT22;46158;52.850;6.970;2022-12-07T07:10:15;12.30;78.00
60313;DHT22;46158;52.850;6.970;2022-12-07T07:12:41;12.30;78.00
60313;DHT22;46158;52.850;6.970;2022-12-07T07:15:07;12.30;78.10
60313;DHT22;46158;52.850;6.970;2022-12-07T07:17:33;12.30;78.20
60313;DHT22;46158;52.850;6.970;2022-12-07T07:19:58;12.30;78.30
60313;DHT22;46158;52.850;6.970;2022-12-07T07:22:24;12.30;78.30
60313;DHT22;46158;52.850;6.970;2022-12-07T07:24:50;12.30;78.30
60313;DHT22;46158;52.850;6.970;2022-12-07T07:27:16;12.30;78.30
60313;DHT22;46158;52.850;6.970;2022-12-07T07:29:42;12.30;78.50
60313;DHT22;46158;52.850;6.970;2022-12-07T07:32:08;12.30;78.60
60313;DHT22;46158;52.850;6.970;2022-12-07T07:34:34;12.30;78.60
60313;DHT22;46158;52.850;6.970;2022-12-07T07:36:59;12.30;78.70
60313;DHT22;46158;52.850;6.970;2022-12-07T07:39:28;12.30;78.70
60313;DHT22;46158;52.850;6.970;2022-12-07T07:41:53;12.30;78.80
60313;DHT22;46158;52.850;6.970;2022-12-07T07:44:22;12.30;79.00
60313;DHT22;46158;52.850;6.970;2022-12-07T07:46:51;12.40;79.20
60313;DHT22;46158;52.850;6.970;2022-12-07T07:49:20;12.40;79.10
60313;DHT22;46158;52.850;6.970;2022-12-07T07:51:45;12.40;79.20
60313;DHT22;46158;52.850;6.970;2022-12-07T07:54:11;12.40;79.30
60313;DHT22;46158;52.850;6.970;2022-12-07T07:56:38;12.40;79.40
60313;DHT22;46158;52.850;6.970;2022-12-07T07:59:04;12.40;79.50
60313;DHT22;46158;52.850;6.970;2022-12-07T08:01:32;12.40;79.70
60313;DHT22;46158;52.850;6.970;2022-12-07T08:03:58;12.40;79.80
60313;DHT22;46158;52.850;6.970;2022-12-07T08:06:26;12.40;79.90
60313;DHT22;46158;52.850;6.970;2022-12-07T08:08:52;12.40;80.00
60313;DHT22;46158;52.850;6.970;2022-12-07T08:11:18;12.50;80.20
60313;DHT22;46158;52.850;6.970;2022-12-07T08:13:47;12.50;80.10
60313;DHT22;46158;52.850;6.970;2022-12-07T08:16:13;12.50;79.90
60313;DHT22;46158;52.850;6.970;2022-12-07T08:18:42;12.50;79.80
60313;DHT22;46158;52.850;6.970;2022-12-07T08:21:17;12.50;79.60
60313;DHT22;46158;52.850;6.970;2022-12-07T08:23:43;12.50;79.60
60313;DHT22;46158;52.850;6.970;2022-12-07T08:26:11;12.50;80.50
60313;DHT22;46158;52.850;6.970;2022-12-07T08:28:40;12.50;79.90
60313;DHT22;46158;52.850;6.970;2022-12-07T08:31:10;12.50;80.60
60313;DHT22;46158;52.850;6.970;2022-12-07T08:33:40;12.50;80.00
60313;DHT22;46158;52.850;6.970;2022-12-07T08:36:17;12.50;80.10
60313;DHT22;46158;52.850;6.970;2022-12-07T08:38:45;12.50;80.30
60313;DHT22;46158;52.850;6.970;2022-12-07T08:41:11;12.60;80.50
60313;DHT22;46158;52.850;6.970;2022-12-07T08:43:37;12.60;80.50
60313;DHT22;46158;52.850;6.970;2022-12-07T08:49:09;12.60;80.60
60313;DHT22;46158;52.850;6.970;2022-12-07T08:51:39;12.60;80.60
60313;DHT22;46158;52.850;6.970;2022-12-07T08:54:09;12.60;80.90
60313;DHT22;46158;52.850;6.970;2022-12-07T08:56:39;12.60;80.90
60313;DHT22;46158;52.850;6.970;2022-12-07T08:59:06;12.60;81.00
60313;DHT22;46158;52.850;6.970;2022-12-07T09:01:32;12.60;81.00
60313;DHT22;46158;52.850;6.970;2022-12-07T09:03:58;12.60;81.20
60313;DHT22;46158;52.850;6.970;2022-12-07T09:06:24;12.70;81.30
60313;DHT22;46158;52.850;6.970;2022-12-07T09:09:00;12.70;81.40
60313;DHT22;46158;52.850;6.970;2022-12-07T09:11:27;12.70;81.50
60313;DHT22;46158;52.850;6.970;2022-12-07T09:14:08;12.70;81.50
60313;DHT22;46158;52.850;6.970;2022-12-07T09:16:38;12.70;81.50
60313;DHT22;46158;52.850;6.970;2022-12-07T09:19:07;12.70;81.60
60313;DHT22;46158;52.850;6.970;2022-12-07T09:21:33;12.70;81.60
60313;DHT22;46158;52.850;6.970;2022-12-07T09:23:58;12.80;81.70
60313;DHT22;46158;52.850;6.970;2022-12-07T09:26:25;12.80;81.70
60313;DHT22;46158;52.850;6.970;2022-12-07T09:28:51;12.80;81.80
60313;DHT22;46158;52.850;6.970;2022-12-07T09:31:17;12.80;81.90
60313;DHT22;46158;52.850;6.970;2022-12-07T09:33:42;12.80;82.00
60313;DHT22;46158;52.850;6.970;2022-12-07T09:36:15;12.80;82.00
60313;DHT22;46158;52.850;6.970;2022-12-07T09:38:40;12.80;82.10
60313;DHT22;46158;52.850;6.970;2022-12-07T09:41:10;12.80;82.20
60313;DHT22;46158;52.850;6.970;2022-12-07T09:43:40;12.80;82.30
60313;DHT22;46158;52.850;6.970;2022-12-07T09:46:10;12.80;82.30
60313;DHT22;46158;52.850;6.970;2022-12-07T09:48:39;12.90;82.40
60313;DHT22;46158;52.850;6.970;2022-12-07T09:51:20;12.90;82.40
60313;DHT22;46158;52.850;6.970;2022-12-07T09:53:47;12.90;82.20
60313;DHT22;46158;52.850;6.970;2022-12-07T09:56:15;12.90;82.30
60313;DHT22;46158;52.850;6.970;2022-12-07T09:58:42;13.00;82.40
60313;DHT22;46158;52.850;6.970;2022-12-07T10:03:35;13.00;82.30
60313;DHT22;46158;52.850;6.970;2022-12-07T10:06:04;13.00;82.20
60313;DHT22;46158;52.850;6.970;2022-12-07T10:08:31;13.00;82.20
60313;DHT22;46158;52.850;6.970;2022-12-07T10:10:57;13.00;82.20
60313;DHT22;46158;52.850;6.970;2022-12-07T10:13:43;13.00;82.10
60313;DHT22;46158;52.850;6.970;2022-12-07T10:16:41;13.10;81.90
60313;DHT22;46158;52.850;6.970;2022-12-07T10:22:09;13.10;81.90
60313;DHT22;46158;52.850;6.970;2022-12-07T10:24:35;13.10;81.90
60313;DHT22;46158;52.850;6.970;2022-12-07T10:27:02;13.10;81.90
60313;DHT22;46158;52.850;6.970;2022-12-07T10:29:36;13.10;81.80
60313;DHT22;46158;52.850;6.970;2022-12-07T10:32:06;13.10;81.70
60313;DHT22;46158;52.850;6.970;2022-12-07T10:34:38;13.10;81.70
60313;DHT22;46158;52.850;6.970;2022-12-07T10:37:15;13.10;81.60
60313;DHT22;46158;52.850;6.970;2022-12-07T10:39:54;13.10;81.60
60313;DHT22;46158;52.850;6.970;2022-12-07T10:42:34;13.10;81.70
60313;DHT22;46158;52.850;6.970;2022-12-07T11:01:32;13.10;81.50
60313;DHT22;46158;52.850;6.970;2022-12-07T11:07:34;13.20;81.30
60313;DHT22;46158;52.850;6.970;2022-12-07T11:18:14;13.20;80.90
60313;DHT22;46158;52.850;6.970;2022-12-07T11:20:59;13.20;80.90
60313;DHT22;46158;52.850;6.970;2022-12-07T11:24:01;13.20;80.90
60313;DHT22;46158;52.850;6.970;2022-12-07T11:26:45;13.20;80.70
60313;DHT22;46158;52.850;6.970;2022-12-07T11:29:20;13.20;80.70
60313;DHT22;46158;52.850;6.970;2022-12-07T11:31:58;13.20;80.60
60313;DHT22;46158;52.850;6.970;2022-12-07T11:37:25;13.20;80.50
60313;DHT22;46158;52.850;6.970;2022-12-07T11:40:24;13.20;80.60
60313;DHT22;46158;52.850;6.970;2022-12-07T11:42:52;13.20;81.40
60313;DHT22;46158;52.850;6.970;2022-12-07T11:45:33;13.30;80.90
60313;DHT22;46158;52.850;6.970;2022-12-07T11:48:14;13.20;80.90
60313;DHT22;46158;52.850;6.970;2022-12-07T11:50:51;13.20;81.00
60313;DHT22;46158;52.850;6.970;2022-12-07T11:53:26;13.20;81.20
60313;DHT22;46158;52.850;6.970;2022-12-07T11:55:57;13.20;81.20
60313;DHT22;46158;52.850;6.970;2022-12-07T12:06:35;13.30;81.60
60313;DHT22;46158;52.850;6.970;2022-12-07T12:15:18;13.30;81.20
60313;DHT22;46158;52.850;6.970;2022-12-07T12:18:23;13.30;80.90
60313;DHT22;46158;52.850;6.970;2022-12-07T12:21:28;13.30;80.70
60313;DHT22;46158;52.850;6.970;2022-12-07T12:24:15;13.30;80.60
60313;DHT22;46158;52.850;6.970;2022-12-07T12:26:56;13.30;80.50
60313;DHT22;46158;52.850;6.970;2022-12-07T12:29:37;13.30;80.40
60313;DHT22;46158;52.850;6.970;2022-12-07T12:32:36;13.30;80.30
60313;DHT22;46158;52.850;6.970;2022-12-07T12:37:54;13.30;80.20
60313;DHT22;46158;52.850;6.970;2022-12-07T12:42:48;13.30;80.20
60313;DHT22;46158;52.850;6.970;2022-12-07T12:45:23;13.30;80.10
60313;DHT22;46158;52.850;6.970;2022-12-07T12:50:37;13.40;80.00
60313;DHT22;46158;52.850;6.970;2022-12-07T12:53:24;13.40;80.00
60313;DHT22;46158;52.850;6.970;2022-12-07T12:56:24;13.40;79.90
60313;DHT22;46158;52.850;6.970;2022-12-07T12:59:18;13.40;80.10
60313;DHT22;46158;52.850;6.970;2022-12-07T13:01:49;13.40;80.00
60313;DHT22;46158;52.850;6.970;2022-12-07T13:04:25;13.40;79.90
60313;DHT22;46158;52.850;6.970;2022-12-07T13:06:55;13.40;79.90
60313;DHT22;46158;52.850;6.970;2022-12-07T13:09:27;13.40;80.50
60313;DHT22;46158;52.850;6.970;2022-12-07T13:12:01;13.40;79.80
60313;DHT22;46158;52.850;6.970;2022-12-07T13:14:51;13.40;79.70
60313;DHT22;46158;52.850;6.970;2022-12-07T13:20:06;13.40;79.80
60313;DHT22;46158;52.850;6.970;2022-12-07T13:25:33;13.40;79.80
60313;DHT22;46158;52.850;6.970;2022-12-07T13:28:16;13.40;79.80
60313;DHT22;46158;52.850;6.970;2022-12-07T13:31:04;13.50;79.80
60313;DHT22;46158;52.850;6.970;2022-12-07T13:33:36;13.50;80.40
60313;DHT22;46158;52.850;6.970;2022-12-07T13:36:02;13.50;80.40
60313;DHT22;46158;52.850;6.970;2022-12-07T13:38:35;13.40;79.70
60313;DHT22;46158;52.850;6.970;2022-12-07T13:41:16;13.40;79.50
60313;DHT22;46158;52.850;6.970;2022-12-07T13:43:49;13.40;79.50
60313;DHT22;46158;52.850;6.970;2022-12-07T13:46:15;13.40;79.70
60313;DHT22;46158;52.850;6.970;2022-12-07T13:48:48;13.50;79.90
60313;DHT22;46158;52.850;6.970;2022-12-07T13:51:27;13.50;80.00
60313;DHT22;46158;52.850;6.970;2022-12-07T13:54:00;13.50;80.10
60313;DHT22;46158;52.850;6.970;2022-12-07T13:56:31;13.50;80.20
60313;DHT22;46158;52.850;6.970;2022-12-07T13:58:58;13.40;80.40
60313;DHT22;46158;52.850;6.970;2022-12-07T14:01:25;13.50;80.50
60313;DHT22;46158;52.850;6.970;2022-12-07T14:03:51;13.50;80.50
60313;DHT22;46158;52.850;6.970;2022-12-07T14:06:24;13.50;80.60
60313;DHT22;46158;52.850;6.970;2022-12-07T14:09:17;13.50;80.60
60313;DHT22;46158;52.850;6.970;2022-12-07T14:11:43;13.50;80.40
60313;DHT22;46158;52.850;6.970;2022-12-07T14:14:28;13.50;80.60
60313;DHT22;46158;52.850;6.970;2022-12-07T14:17:00;13.50;80.40
60313;DHT22;46158;52.850;6.970;2022-12-07T14:19:58;13.50;80.50
60313;DHT22;46158;52.850;6.970;2022-12-07T14:22:28;13.50;80.40
60313;DHT22;46158;52.850;6.970;2022-12-07T14:25:17;13.50;80.50
60313;DHT22;46158;52.850;6.970;2022-12-07T14:27:58;13.50;80.40
60313;DHT22;46158;52.850;6.970;2022-12-07T14:30:29;13.50;80.50
60313;DHT22;46158;52.850;6.970;2022-12-07T14:33:00;13.50;80.50
60313;DHT22;46158;52.850;6.970;2022-12-07T14:35:27;13.50;80.40
60313;DHT22;46158;52.850;6.970;2022-12-07T14:37:53;13.50;80.50
60313;DHT22;46158;52.850;6.970;2022-12-07T14:40:20;13.50;80.40
60313;DHT22;46158;52.850;6.970;2022-12-07T14:42:49;13.50;80.40
60313;DHT22;46158;52.850;6.970;2022-12-07T14:45:20;13.60;80.50
60313;DHT22;46158;52.850;6.970;2022-12-07T14:47:47;13.60;80.50
60313;DHT22;46158;52.850;6.970;2022-12-07T14:50:15;13.60;80.50
60313;DHT22;46158;52.850;6.970;2022-12-07T14:52:43;13.60;80.50
60313;DHT22;46158;52.850;6.970;2022-12-07T14:55:34;13.60;80.50
60313;DHT22;46158;52.850;6.970;2022-12-07T14:58:00;13.60;80.40
60313;DHT22;46158;52.850;6.970;2022-12-07T15:00:27;13.60;80.50
60313;DHT22;46158;52.850;6.970;2022-12-07T15:02:54;13.50;80.40
60313;DHT22;46158;52.850;6.970;2022-12-07T15:05:20;13.60;80.50
60313;DHT22;46158;52.850;6.970;2022-12-07T15:07:46;13.60;80.50
60313;DHT22;46158;52.850;6.970;2022-12-07T15:10:18;13.60;80.40
60313;DHT22;46158;52.850;6.970;2022-12-07T15:12:44;13.60;80.30
60313;DHT22;46158;52.850;6.970;2022-12-07T15:15:12;13.60;80.00
60313;DHT22;46158;52.850;6.970;2022-12-07T15:17:37;13.60;79.70
60313;DHT22;46158;52.850;6.970;2022-12-07T15:20:04;13.60;79.50
60313;DHT22;46158;52.850;6.970;2022-12-07T15:22:30;13.60;79.40
60313;DHT22;46158;52.850;6.970;2022-12-07T15:24:57;13.60;79.20
60313;DHT22;46158;52.850;6.970;2022-12-07T15:27:23;13.60;79.10
60313;DHT22;46158;52.850;6.970;2022-12-07T15:29:48;13.60;79.00
60313;DHT22;46158;52.850;6.970;2022-12-07T15:32:14;13.60;78.90
60313;DHT22;46158;52.850;6.970;2022-12-07T15:34:40;13.60;78.80
60313;DHT22;46158;52.850;6.970;2022-12-07T15:37:06;13.60;78.80
60313;DHT22;46158;52.850;6.970;2022-12-07T15:39:32;13.60;78.70
60313;DHT22;46158;52.850;6.970;2022-12-07T15:41:57;13.60;78.80
60313;DHT22;46158;52.850;6.970;2022-12-07T15:44:23;13.60;78.90
60313;DHT22;46158;52.850;6.970;2022-12-07T15:47:08;13.60;78.90
60313;DHT22;46158;52.850;6.970;2022-12-07T15:49:33;13.60;79.00
60313;DHT22;46158;52.850;6.970;2022-12-07T15:52:00;13.60;79.00
60313;DHT22;46158;52.850;6.970;2022-12-07T15:54:27;13.60;79.00
60313;DHT22;46158;52.850;6.970;2022-12-07T15:56:54;13.60;79.00
60313;DHT22;46158;52.850;6.970;2022-12-07T15:59:20;13.60;79.00
60313;DHT22;46158;52.850;6.970;2022-12-07T16:01:46;13.60;78.90
60313;DHT22;46158;52.850;6.970;2022-12-07T16:04:12;13.60;78.90
60313;DHT22;46158;52.850;6.970;2022-12-07T16:06:38;13.60;78.90
60313;DHT22;46158;52.850;6.970;2022-12-07T16:09:04;13.60;79.00
60313;DHT22;46158;52.850;6.970;2022-12-07T16:11:30;13.60;79.00
60313;DHT22;46158;52.850;6.970;2022-12-07T16:13:56;13.60;79.10
60313;DHT22;46158;52.850;6.970;2022-12-07T16:16:21;13.60;79.20
60313;DHT22;46158;52.850;6.970;2022-12-07T16:18:48;13.60;77.80
60313;DHT22;46158;52.850;6.970;2022-12-07T16:21:15;13.60;76.90
60313;DHT22;46158;52.850;6.970;2022-12-07T16:23:42;13.60;77.40
60313;DHT22;46158;52.850;6.970;2022-12-07T16:26:11;13.50;77.80
60313;DHT22;46158;52.850;6.970;2022-12-07T16:28:37;13.50;78.20
60313;DHT22;46158;52.850;6.970;2022-12-07T16:31:06;13.50;78.50
60313;DHT22;46158;52.850;6.970;2022-12-07T16:33:34;13.50;78.60
60313;DHT22;46158;52.850;6.970;2022-12-07T16:36:00;13.50;78.70
60313;DHT22;46158;52.850;6.970;2022-12-07T16:38:26;13.50;78.80
60313;DHT22;46158;52.850;6.970;2022-12-07T16:40:53;13.50;79.50
60313;DHT22;46158;52.850;6.970;2022-12-07T16:43:19;13.50;79.00
60313;DHT22;46158;52.850;6.970;2022-12-07T16:45:46;13.50;79.10
60313;DHT22;46158;52.850;6.970;2022-12-07T16:48:16;13.60;79.10
60313;DHT22;46158;52.850;6.970;2022-12-07T16:50:43;13.50;79.10
60313;DHT22;46158;52.850;6.970;2022-12-07T16:53:10;13.50;79.20
60313;DHT22;46158;52.850;6.970;2022-12-07T16:55:43;13.50;79.30
60313;DHT22;46158;52.850;6.970;2022-12-07T16:58:10;13.60;79.50
60313;DHT22;46158;52.850;6.970;2022-12-07T17:00:40;13.60;79.40
60313;DHT22;46158;52.850;6.970;2022-12-07T17:03:06;13.60;79.30
60313;DHT22;46158;52.850;6.970;2022-12-07T17:05:40;13.60;79.20
60313;DHT22;46158;52.850;6.970;2022-12-07T17:08:06;13.60;79.10
60313;DHT22;46158;52.850;6.970;2022-12-07T17:10:40;13.60;79.10
60313;DHT22;46158;52.850;6.970;2022-12-07T17:13:06;13.60;79.10
60313;DHT22;46158;52.850;6.970;2022-12-07T17:15:58;13.60;79.10
60313;DHT22;46158;52.850;6.970;2022-12-07T17:18:24;13.60;79.00
60313;DHT22;46158;52.850;6.970;2022-12-07T17:20:51;13.60;79.10
60313;DHT22;46158;52.850;6.970;2022-12-07T17:23:17;13.60;79.20
60313;DHT22;46158;52.850;6.970;2022-12-07T17:25:43;13.60;79.20
60313;DHT22;46158;52.850;6.970;2022-12-07T17:28:09;13.60;79.20
60313;DHT22;46158;52.850;6.970;2022-12-07T17:30:34;13.60;79.30
60313;DHT22;46158;52.850;6.970;2022-12-07T17:33:00;13.60;79.30
60313;DHT22;46158;52.850;6.970;2022-12-07T17:35:27;13.60;79.40
60313;DHT22;46158;52.850;6.970;2022-12-07T17:37:52;13.60;79.30
60313;DHT22;46158;52.850;6.970;2022-12-07T17:40:18;13.60;79.40
60313;DHT22;46158;52.850;6.970;2022-12-07T17:42:44;13.60;79.40